Time;durP1;ratioP1;P1;durP2;ratioP2;P2;SDS_P1;SDS_P2;PMS_P1;PMS_P2;Temp;Humidity;BMP_temperature;BMP_pressure;BME280_temperature;BME280_humidity;BME280_pressure;Samples;Min_cycle;Max_cycle;Signal;HPM_P1;HPM_P2
2023/03/27 00:00:11;;;;;;;4.10;1.38;;;20.30;80.70;;;;;;5061838;28;20273;-64
2023/03/27 00:02:38;;;;;;;3.03;1.33;;;20.20;80.60;;;;;;5064721;28;20694;-61
2023/03/27 00:05:06;;;;;;;1.65;1.20;;;20.20;80.60;;;;;;5067229;28;20194;-60
2023/03/27 00:07:34;;;;;;;2.22;1.10;;;20.20;80.50;;;;;;5064795;28;20211;-60
2023/03/27 00:10:01;;;;;;;2.13;1.38;;;20.20;80.40;;;;;;5066133;28;20635;-63
2023/03/27 00:12:29;;;;;;;2.67;1.20;;;20.20;80.40;;;;;;5056476;28;20668;-62
2023/03/27 00:14:56;;;;;;;4.18;1.85;;;20.20;80.50;;;;;;5057517;28;20596;-64
2023/03/27 00:17:23;;;;;;;3.50;1.45;;;20.20;80.40;;;;;;5061058;28;20986;-62
2023/03/27 00:19:50;;;;;;;1.60;1.13;;;20.20;80.30;;;;;;5058542;28;20203;-60
2023/03/27 00:22:16;;;;;;;2.75;1.25;;;20.20;80.20;;;;;;5067847;28;20298;-61
2023/03/27 00:24:44;;;;;;;1.20;0.90;;;20.20;81.00;;;;;;5066077;28;20565;-61
2023/03/27 00:27:10;;;;;;;3.13;1.10;;;20.20;80.20;;;;;;5060747;28;20203;-61
2023/03/27 00:29:38;;;;;;;3.45;1.10;;;20.20;80.20;;;;;;5065543;28;20252;-61
2023/03/27 00:32:06;;;;;;;3.33;1.50;;;20.20;80.20;;;;;;5065618;28;20202;-61
2023/03/27 00:34:32;;;;;;;3.00;1.30;;;20.20;80.20;;;;;;5066127;28;20199;-61
2023/03/27 00:36:59;;;;;;;2.55;1.13;;;20.20;80.10;;;;;;5061150;28;20272;-61
2023/03/27 00:39:26;;;;;;;2.58;1.30;;;20.20;80.10;;;;;;5062067;28;20281;-63
2023/03/27 00:41:54;;;;;;;2.80;1.33;;;20.20;80.10;;;;;;5065308;28;20661;-61
2023/03/27 00:44:23;;;;;;;2.55;1.58;;;20.20;80.10;;;;;;5057664;28;20207;-63
2023/03/27 00:46:54;;;;;;;2.60;1.20;;;20.20;80.00;;;;;;5054339;28;20195;-62
2023/03/27 00:49:22;;;;;;;2.08;1.35;;;20.20;80.00;;;;;;5062526;28;20191;-62
2023/03/27 00:51:51;;;;;;;3.00;1.13;;;20.20;80.00;;;;;;5062377;28;20615;-59
2023/03/27 00:54:25;;;;;;;1.40;1.17;;;20.20;79.90;;;;;;5067365;28;20198;-59
2023/03/27 00:56:54;;;;;;;4.05;1.60;;;20.20;79.90;;;;;;5063893;28;20318;-61
2023/03/27 00:59:23;;;;;;;1.40;1.13;;;20.20;79.90;;;;;;5063549;28;20623;-62
2023/03/27 01:01:52;;;;;;;2.13;1.25;;;20.20;79.80;;;;;;5060731;28;20256;-60
2023/03/27 01:04:20;;;;;;;1.98;1.10;;;20.10;79.60;;;;;;5064822;28;20191;-59
2023/03/27 01:06:49;;;;;;;3.35;1.33;;;20.10;79.60;;;;;;5068950;28;20203;-62
2023/03/27 01:09:15;;;;;;;2.17;1.35;;;20.10;79.70;;;;;;5062772;28;20659;-62
2023/03/27 01:11:51;;;;;;;2.13;1.00;;;20.10;79.60;;;;;;5065845;28;20221;-66
2023/03/27 01:14:29;;;;;;;4.18;1.48;;;20.10;79.50;;;;;;5064416;28;20281;-66
2023/03/27 01:17:07;;;;;;;1.90;0.95;;;20.10;79.50;;;;;;5064275;28;20215;-60
2023/03/27 01:20:03;;;;;;;1.98;1.20;;;20.10;80.30;;;;;;5062239;28;20207;-60
2023/03/27 01:23:03;;;;;;;1.60;1.00;;;20.10;79.50;;;;;;5056074;28;20745;-60
2023/03/27 01:26:15;;;;;;;1.52;1.13;;;20.10;79.50;;;;;;5060912;28;20192;-61
2023/03/27 01:28:53;;;;;;;1.13;1.00;;;20.10;79.40;;;;;;4994461;28;20747;-61
2023/03/27 01:31:44;;;;;;;1.73;1.17;;;20.10;79.40;;;;;;5049390;28;20274;-61
2023/03/27 01:34:35;;;;;;;2.25;1.13;;;20.10;79.40;;;;;;5060905;28;21020;-64
2023/03/27 01:37:36;;;;;;;2.50;1.23;;;20.10;79.30;;;;;;5055471;28;20223;-61
2023/03/27 01:40:08;;;;;;;1.65;1.10;;;20.10;79.30;;;;;;5056563;28;20648;-63
2023/03/27 01:42:40;;;;;;;3.17;1.45;;;20.10;79.30;;;;;;5053332;28;20206;-64
2023/03/27 01:45:16;;;;;;;2.00;1.10;;;20.10;79.20;;;;;;5055570;28;20655;-60
2023/03/27 01:47:47;;;;;;;2.08;1.38;;;20.10;79.20;;;;;;5059684;28;20211;-58
2023/03/27 01:50:20;;;;;;;1.92;1.10;;;20.10;79.20;;;;;;5066167;28;20199;-61
2023/03/27 01:52:53;;;;;;;2.20;1.20;;;20.10;79.20;;;;;;5063589;28;20607;-62
2023/03/27 01:55:28;;;;;;;2.40;1.10;;;20.10;79.20;;;;;;5065893;28;20198;-61
2023/03/27 01:57:59;;;;;;;2.25;1.38;;;20.10;79.00;;;;;;5062665;28;20222;-61
2023/03/27 02:00:27;;;;;;;1.90;1.25;;;20.10;79.00;;;;;;5059963;28;20574;-61
2023/03/27 02:02:58;;;;;;;2.85;1.10;;;20.10;79.00;;;;;;5064665;28;20210;-58
2023/03/27 02:05:31;;;;;;;1.45;1.15;;;20.10;79.00;;;;;;5059306;28;20191;-62
2023/03/27 02:08:04;;;;;;;1.67;1.00;;;20.10;79.00;;;;;;5059058;28;20302;-62
2023/03/27 02:10:37;;;;;;;1.67;1.10;;;20.10;79.00;;;;;;5065873;28;20203;-62
2023/03/27 02:13:08;;;;;;;2.10;0.90;;;20.10;78.90;;;;;;5061561;28;20206;-66
2023/03/27 02:15:39;;;;;;;2.38;1.08;;;20.10;78.90;;;;;;5068190;28;20245;-62
2023/03/27 02:18:11;;;;;;;2.10;1.10;;;20.10;78.90;;;;;;5060282;28;20716;-61
2023/03/27 02:20:39;;;;;;;1.88;1.10;;;20.10;78.80;;;;;;5055816;28;20211;-61
2023/03/27 02:23:07;;;;;;;1.65;1.00;;;20.10;78.80;;;;;;5063307;28;20236;-65
2023/03/27 02:25:37;;;;;;;1.30;1.00;;;20.10;78.70;;;;;;5061901;28;20202;-63
2023/03/27 02:28:28;;;;;;;1.15;0.90;;;20.00;78.70;;;;;;5058994;28;20277;-62
2023/03/27 02:31:05;;;;;;;1.80;1.00;;;20.10;78.70;;;;;;5062826;28;20205;-64
2023/03/27 02:33:43;;;;;;;1.92;1.40;;;20.10;78.70;;;;;;5065526;28;20549;-61
2023/03/27 02:36:22;;;;;;;2.38;0.95;;;20.00;78.50;;;;;;5058823;28;20200;-61
2023/03/27 02:38:54;;;;;;;1.40;0.85;;;20.00;78.50;;;;;;5063210;28;20199;-62
2023/03/27 02:41:30;;;;;;;1.17;1.02;;;20.00;78.50;;;;;;5059478;28;20279;-62
2023/03/27 02:44:03;;;;;;;1.60;1.30;;;20.00;78.50;;;;;;5057043;28;20250;-61
2023/03/27 02:46:37;;;;;;;1.50;0.93;;;20.00;78.50;;;;;;5065437;28;20198;-62
2023/03/27 02:49:09;;;;;;;1.45;0.90;;;20.00;78.40;;;;;;5065422;28;20209;-61
2023/03/27 02:51:40;;;;;;;2.30;1.15;;;20.00;78.50;;;;;;5057913;28;20282;-62
2023/03/27 02:54:11;;;;;;;1.58;1.00;;;20.00;78.40;;;;;;5063414;28;20282;-59
2023/03/27 02:56:44;;;;;;;1.85;1.10;;;20.00;78.40;;;;;;5065505;28;20254;-61
2023/03/27 02:59:15;;;;;;;2.10;1.00;;;20.00;78.40;;;;;;5062851;28;20222;-64
2023/03/27 03:01:44;;;;;;;1.80;1.00;;;20.00;78.30;;;;;;5062123;28;20248;-63
2023/03/27 03:04:16;;;;;;;1.63;1.05;;;20.00;78.30;;;;;;5059416;28;20203;-61
2023/03/27 03:06:43;;;;;;;2.08;1.10;;;20.00;78.30;;;;;;5060734;28;20206;-62
2023/03/27 03:09:13;;;;;;;1.30;0.90;;;20.00;78.20;;;;;;5068933;28;20206;-60
2023/03/27 03:11:46;;;;;;;1.55;1.00;;;20.00;78.20;;;;;;5063813;28;20198;-66
2023/03/27 03:14:14;;;;;;;2.15;1.02;;;20.00;79.00;;;;;;5069570;28;20199;-60
2023/03/27 03:16:41;;;;;;;2.33;1.30;;;20.00;78.20;;;;;;5067293;28;20668;-63
2023/03/27 03:19:07;;;;;;;1.80;1.10;;;20.00;78.20;;;;;;5065982;28;20203;-61
2023/03/27 03:21:35;;;;;;;1.77;0.90;;;20.00;78.20;;;;;;5065913;28;20268;-61
2023/03/27 03:24:01;;;;;;;2.38;1.13;;;20.00;78.20;;;;;;5065921;28;20668;-61
2023/03/27 03:26:28;;;;;;;2.15;1.10;;;20.00;78.10;;;;;;5065998;28;20191;-60
2023/03/27 03:28:57;;;;;;;1.10;1.00;;;20.00;78.00;;;;;;5057063;28;20221;-60
2023/03/27 03:31:24;;;;;;;1.92;1.20;;;20.00;78.00;;;;;;5056717;28;22073;-62
2023/03/27 03:33:51;;;;;;;2.85;1.30;;;20.00;78.00;;;;;;5057191;28;20312;-60
2023/03/27 03:36:17;;;;;;;1.95;0.90;;;20.00;77.90;;;;;;5064107;28;20244;-61
2023/03/27 03:38:44;;;;;;;2.67;0.90;;;20.00;77.90;;;;;;5066252;28;20222;-62
2023/03/27 03:41:11;;;;;;;1.60;1.08;;;20.00;77.90;;;;;;5064115;28;20198;-65
2023/03/27 03:43:37;;;;;;;1.75;1.20;;;20.00;77.90;;;;;;5059849;28;20210;-66
2023/03/27 03:46:05;;;;;;;2.13;1.17;;;20.00;77.90;;;;;;5065562;28;20918;-62
2023/03/27 03:48:32;;;;;;;1.20;1.00;;;20.00;77.90;;;;;;5061402;28;20218;-62
2023/03/27 03:50:59;;;;;;;2.83;1.00;;;20.00;77.90;;;;;;5060458;28;20736;-60
2023/03/27 03:53:25;;;;;;;3.78;1.00;;;20.00;77.90;;;;;;5061444;28;20195;-60
2023/03/27 03:55:53;;;;;;;1.80;0.90;;;19.90;77.80;;;;;;5066914;28;20597;-61
2023/03/27 03:58:19;;;;;;;1.55;0.90;;;20.00;77.80;;;;;;5066786;28;20701;-60
2023/03/27 04:00:46;;;;;;;1.50;1.27;;;19.90;77.70;;;;;;5066983;28;20212;-64
2023/03/27 04:03:14;;;;;;;1.60;1.00;;;19.90;77.60;;;;;;5052043;28;20257;-61
2023/03/27 04:05:41;;;;;;;2.25;1.20;;;19.90;77.70;;;;;;5065425;28;20191;-61
2023/03/27 04:08:08;;;;;;;1.90;0.90;;;19.90;77.60;;;;;;5068581;28;20214;-61
2023/03/27 04:10:37;;;;;;;1.20;0.90;;;19.90;77.50;;;;;;5059066;28;20196;-66
2023/03/27 04:13:04;;;;;;;1.98;0.90;;;19.90;77.60;;;;;;5061475;28;20207;-65
2023/03/27 04:15:31;;;;;;;2.17;1.48;;;19.90;77.50;;;;;;5064057;28;20264;-61
2023/03/27 04:17:57;;;;;;;1.02;0.70;;;20.00;77.60;;;;;;5058431;28;20218;-65
2023/03/27 04:20:26;;;;;;;1.98;0.90;;;19.90;77.50;;;;;;5057556;28;20246;-64
2023/03/27 04:22:53;;;;;;;1.70;1.10;;;19.90;77.50;;;;;;5058217;28;20219;-63
2023/03/27 04:25:22;;;;;;;1.63;1.10;;;19.90;77.50;;;;;;5060670;28;20187;-63
2023/03/27 04:27:50;;;;;;;1.80;1.20;;;19.90;77.50;;;;;;5056402;28;20211;-64
2023/03/27 04:30:21;;;;;;;2.15;1.00;;;19.90;77.40;;;;;;5057871;28;20286;-64
2023/03/27 04:32:49;;;;;;;1.55;0.85;;;19.90;77.40;;;;;;5057973;28;20202;-61
2023/03/27 04:35:16;;;;;;;1.15;0.82;;;19.90;77.30;;;;;;5062300;28;20738;-60
2023/03/27 04:37:44;;;;;;;1.70;0.98;;;19.90;77.30;;;;;;5063677;28;20272;-63
2023/03/27 04:40:13;;;;;;;3.42;1.02;;;19.90;77.30;;;;;;5058348;28;20200;-61
2023/03/27 04:42:42;;;;;;;1.20;0.90;;;19.90;77.30;;;;;;5059987;28;20191;-63
2023/03/27 04:45:12;;;;;;;1.70;0.88;;;19.90;77.20;;;;;;5058930;28;20203;-61
2023/03/27 04:47:39;;;;;;;1.00;0.80;;;19.90;77.20;;;;;;5062517;28;20677;-64
2023/03/27 04:50:07;;;;;;;1.40;0.90;;;19.90;77.20;;;;;;5058768;28;20248;-61
2023/03/27 04:52:34;;;;;;;1.70;0.98;;;19.90;77.30;;;;;;5059483;28;20203;-60
2023/03/27 04:55:03;;;;;;;2.17;1.45;;;19.90;77.20;;;;;;5068765;28;20210;-60
2023/03/27 04:57:30;;;;;;;1.50;0.90;;;19.90;77.20;;;;;;5064705;28;20242;-61
2023/03/27 04:59:57;;;;;;;1.10;0.90;;;19.90;77.20;;;;;;5065133;28;20282;-62
2023/03/27 05:02:26;;;;;;;2.30;0.95;;;19.90;77.20;;;;;;5057834;28;20203;-60
2023/03/27 05:04:57;;;;;;;1.10;0.90;;;19.90;77.20;;;;;;5066373;28;20349;-60
2023/03/27 05:07:25;;;;;;;1.50;0.90;;;19.90;77.20;;;;;;5061789;28;20205;-60
2023/03/27 05:09:51;;;;;;;2.08;1.25;;;19.90;77.20;;;;;;5066765;28;20265;-63
2023/03/27 05:12:20;;;;;;;1.38;0.93;;;19.90;77.20;;;;;;5058421;28;20192;-61
2023/03/27 05:14:47;;;;;;;2.00;1.20;;;19.90;77.20;;;;;;5065494;28;20194;-64
2023/03/27 05:17:14;;;;;;;1.52;1.05;;;19.90;77.20;;;;;;5059725;28;20755;-64
2023/03/27 05:19:43;;;;;;;1.42;0.80;;;19.90;77.10;;;;;;5064071;28;20655;-64
2023/03/27 05:22:10;;;;;;;1.50;1.10;;;19.90;77.10;;;;;;5065576;28;20276;-60
2023/03/27 05:24:37;;;;;;;1.10;0.90;;;19.90;77.10;;;;;;5067803;28;20286;-61
2023/03/27 05:27:05;;;;;;;2.10;0.90;;;19.90;77.00;;;;;;5054987;28;20586;-60
2023/03/27 05:29:34;;;;;;;1.75;1.02;;;20.00;77.10;;;;;;5063539;28;21682;-64
2023/03/27 05:32:01;;;;;;;1.33;1.08;;;20.00;77.10;;;;;;5061095;28;20234;-60
2023/03/27 05:34:28;;;;;;;1.25;0.70;;;20.00;77.10;;;;;;5054314;28;20238;-61
2023/03/27 05:36:56;;;;;;;1.55;0.80;;;20.00;77.10;;;;;;5063636;28;20227;-61
2023/03/27 05:39:24;;;;;;;1.30;0.90;;;20.00;77.10;;;;;;5057211;28;20219;-63
2023/03/27 05:41:51;;;;;;;1.10;0.80;;;20.00;77.10;;;;;;5057846;28;20256;-63
2023/03/27 05:44:18;;;;;;;1.17;0.82;;;20.00;77.10;;;;;;5061511;28;20265;-59
2023/03/27 05:46:46;;;;;;;1.23;0.80;;;20.00;77.10;;;;;;5057941;28;20211;-61
2023/03/27 05:49:14;;;;;;;2.63;0.90;;;20.00;77.10;;;;;;5069204;28;20536;-63
2023/03/27 05:51:40;;;;;;;1.10;0.70;;;20.00;77.10;;;;;;5060212;28;20668;-60
2023/03/27 05:54:07;;;;;;;2.25;0.70;;;19.90;77.00;;;;;;5063169;28;20222;-64
2023/03/27 05:56:34;;;;;;;2.45;1.00;;;19.90;77.40;;;;;;5063099;28;20199;-56
2023/03/27 05:59:01;;;;;;;1.77;1.08;;;20.00;77.20;;;;;;5061555;28;20222;-55
2023/03/27 06:01:28;;;;;;;3.63;0.80;;;20.00;77.10;;;;;;5054963;28;20677;-61
2023/03/27 06:03:56;;;;;;;8.98;1.77;;;20.10;77.20;;;;;;5062947;28;20202;-59
2023/03/27 06:06:22;;;;;;;28.58;1.35;;;20.10;77.10;;;;;;5054839;28;20195;-60
2023/03/27 06:08:49;;;;;;;5.65;1.02;;;20.10;77.20;;;;;;5058235;28;20249;-59
2023/03/27 06:11:16;;;;;;;2.40;0.80;;;20.10;77.30;;;;;;5057496;28;20197;-62
2023/03/27 06:13:42;;;;;;;2.95;1.00;;;20.10;77.60;;;;;;5054337;28;20195;-60
2023/03/27 06:16:10;;;;;;;3.58;1.17;;;20.10;77.60;;;;;;5056766;28;20272;-62
2023/03/27 06:18:37;;;;;;;3.88;0.88;;;20.10;77.80;;;;;;5059185;28;20271;-64
2023/03/27 06:21:06;;;;;;;2.47;1.27;;;20.20;78.20;;;;;;5060689;28;20252;-65
2023/03/27 06:23:33;;;;;;;3.33;1.00;;;20.20;78.40;;;;;;5062151;28;20575;-62
2023/03/27 06:25:59;;;;;;;1.38;0.70;;;20.20;78.60;;;;;;5056065;28;20204;-61
2023/03/27 06:28:27;;;;;;;3.78;0.90;;;20.20;78.70;;;;;;5064523;28;20229;-59
2023/03/27 06:30:54;;;;;;;4.63;1.00;;;20.20;78.90;;;;;;5064375;28;20210;-62
2023/03/27 06:33:21;;;;;;;1.42;0.70;;;20.20;79.10;;;;;;5064669;28;20218;-55
2023/03/27 06:35:48;;;;;;;3.55;0.90;;;20.20;79.10;;;;;;5056852;28;20241;-60
2023/03/27 06:38:17;;;;;;;4.55;0.90;;;20.20;79.20;;;;;;5062871;28;20211;-61
2023/03/27 06:40:44;;;;;;;6.07;1.00;;;20.20;79.20;;;;;;5067072;28;20194;-57
2023/03/27 06:43:12;;;;;;;3.45;1.23;;;20.20;79.20;;;;;;5063130;28;20206;-58
2023/03/27 06:45:43;;;;;;;1.30;0.80;;;20.20;79.30;;;;;;5064342;28;20206;-54
2023/03/27 06:48:11;;;;;;;4.55;0.90;;;20.30;79.40;;;;;;5057313;28;20207;-62
2023/03/27 06:50:38;;;;;;;2.05;0.95;;;20.30;79.30;;;;;;5068396;28;20206;-61
2023/03/27 06:53:06;;;;;;;1.98;0.70;;;20.40;79.40;;;;;;5063390;28;20211;-60
2023/03/27 06:55:35;;;;;;;2.97;0.80;;;20.30;79.30;;;;;;5065175;28;20207;-62
2023/03/27 06:58:03;;;;;;;4.25;1.30;;;20.30;79.20;;;;;;5064524;28;20225;-61
2023/03/27 07:00:32;;;;;;;1.23;0.80;;;20.30;79.20;;;;;;5065501;28;20659;-62
2023/03/27 07:03:01;;;;;;;3.30;1.60;;;20.30;79.00;;;;;;5062493;28;20579;-61
2023/03/27 07:05:30;;;;;;;2.70;0.80;;;20.30;79.10;;;;;;5066838;28;20205;-64
2023/03/27 07:07:57;;;;;;;2.15;1.00;;;20.30;79.00;;;;;;5056904;28;20217;-61
2023/03/27 07:10:24;;;;;;;1.65;0.80;;;20.30;79.00;;;;;;5063077;28;20199;-66
2023/03/27 07:12:54;;;;;;;2.08;1.00;;;20.30;78.90;;;;;;5055638;28;20190;-63
2023/03/27 07:15:21;;;;;;;2.15;1.25;;;20.40;78.90;;;;;;5060029;28;20206;-62
2023/03/27 07:17:53;;;;;;;1.25;0.98;;;20.40;78.90;;;;;;5062585;28;20614;-66
2023/03/27 07:20:19;;;;;;;1.05;0.70;;;20.40;79.60;;;;;;5065081;28;20192;-62
2023/03/27 07:22:46;;;;;;;1.77;0.80;;;20.40;78.70;;;;;;5058749;28;20214;-63
2023/03/27 07:25:13;;;;;;;1.33;0.98;;;20.40;78.60;;;;;;5059934;28;20258;-62
2023/03/27 07:27:40;;;;;;;2.90;0.73;;;20.40;78.50;;;;;;5063457;28;20191;-61
2023/03/27 07:30:12;;;;;;;1.63;0.98;;;20.40;78.50;;;;;;5062506;28;20248;-62
2023/03/27 07:32:39;;;;;;;6.18;0.90;;;20.40;78.40;;;;;;5060115;28;20193;-61
2023/03/27 07:35:07;;;;;;;1.30;0.90;;;20.40;78.40;;;;;;5061742;28;20207;-63
2023/03/27 07:37:34;;;;;;;1.30;1.00;;;20.40;78.40;;;;;;5058018;28;20206;-63
2023/03/27 07:40:01;;;;;;;3.08;0.90;;;20.40;79.10;;;;;;5060595;28;20582;-60
2023/03/27 07:42:28;;;;;;;1.65;1.02;;;20.40;79.00;;;;;;5057255;28;20227;-59
2023/03/27 07:44:54;;;;;;;1.60;1.10;;;20.40;78.20;;;;;;5061284;28;20226;-61
2023/03/27 07:47:23;;;;;;;1.10;0.70;;;20.50;78.20;;;;;;5063500;28;20268;-61
2023/03/27 07:49:49;;;;;;;1.20;0.80;;;20.50;78.20;;;;;;5058677;28;20222;-60
2023/03/27 07:52:16;;;;;;;1.10;0.90;;;20.50;78.20;;;;;;5063169;28;20206;-60
2023/03/27 07:54:43;;;;;;;1.60;1.30;;;20.50;78.10;;;;;;5060641;28;20310;-67
2023/03/27 07:57:10;;;;;;;1.20;1.05;;;20.50;78.10;;;;;;5055477;28;20195;-63
2023/03/27 07:59:37;;;;;;;2.15;0.90;;;20.50;78.10;;;;;;5061019;28;20249;-63
2023/03/27 08:02:04;;;;;;;1.15;0.70;;;20.50;78.00;;;;;;5062799;28;20206;-62
2023/03/27 08:04:32;;;;;;;2.50;1.05;;;20.50;78.00;;;;;;5066248;28;20191;-63
2023/03/27 08:06:59;;;;;;;3.42;1.05;;;20.50;78.00;;;;;;5069864;28;20203;-61
2023/03/27 08:09:26;;;;;;;1.70;0.90;;;20.40;76.40;;;;;;5063743;28;20988;-61
2023/03/27 08:11:52;;;;;;;1.95;0.90;;;20.20;73.10;;;;;;5067164;28;20195;-63
2023/03/27 08:14:19;;;;;;;1.83;0.82;;;20.20;73.70;;;;;;5062943;28;20618;-61
2023/03/27 08:16:46;;;;;;;3.15;0.85;;;20.20;74.40;;;;;;5072235;28;20259;-60
2023/03/27 08:19:13;;;;;;;2.83;1.10;;;20.30;74.80;;;;;;5072357;28;20234;-60
2023/03/27 08:21:41;;;;;;;1.90;1.00;;;20.30;75.00;;;;;;5065249;28;20273;-60
2023/03/27 08:24:08;;;;;;;1.25;0.90;;;20.40;75.30;;;;;;5068894;28;20198;-61
2023/03/27 08:26:35;;;;;;;1.88;0.95;;;20.40;75.50;;;;;;5066204;28;20206;-61
2023/03/27 08:29:02;;;;;;;3.17;0.95;;;20.40;75.60;;;;;;5062114;28;20214;-60
2023/03/27 08:31:30;;;;;;;1.98;0.85;;;20.40;75.60;;;;;;5060038;28;20196;-63
2023/03/27 08:33:56;;;;;;;1.20;0.80;;;20.40;75.60;;;;;;5074802;28;20195;-61
2023/03/27 08:36:23;;;;;;;1.30;0.90;;;20.50;75.70;;;;;;5081850;28;20196;-62
2023/03/27 08:38:53;;;;;;;1.65;0.85;;;20.50;75.80;;;;;;5061126;28;20211;-61
2023/03/27 08:41:26;;;;;;;7.70;0.82;;;20.50;75.80;;;;;;5071684;28;20198;-61
2023/03/27 08:43:56;;;;;;;1.45;0.90;;;20.50;75.80;;;;;;5068695;28;20214;-61
2023/03/27 08:46:27;;;;;;;1.33;0.93;;;20.50;75.90;;;;;;5071126;28;20199;-62
2023/03/27 08:49:00;;;;;;;1.30;0.80;;;20.50;75.90;;;;;;5068569;28;20290;-65
2023/03/27 08:51:31;;;;;;;1.42;0.80;;;20.50;75.90;;;;;;5064808;28;20220;-62
2023/03/27 08:54:06;;;;;;;1.10;0.70;;;20.50;75.80;;;;;;5069638;28;20202;-61
2023/03/27 08:56:33;;;;;;;2.42;1.05;;;20.60;76.00;;;;;;5067632;28;20191;-65
2023/03/27 08:59:01;;;;;;;2.23;0.90;;;20.60;76.00;;;;;;5061458;28;20212;-61
2023/03/27 09:01:39;;;;;;;1.17;0.70;;;20.60;76.00;;;;;;5065842;28;20512;-63
2023/03/27 09:04:17;;;;;;;2.10;0.80;;;20.60;76.00;;;;;;5066689;28;20449;-62
2023/03/27 09:06:52;;;;;;;1.10;0.80;;;20.60;76.00;;;;;;5065806;28;20289;-62
2023/03/27 09:09:31;;;;;;;2.60;0.90;;;20.60;76.00;;;;;;5065024;28;20554;-61
2023/03/27 09:12:04;;;;;;;1.33;0.80;;;20.60;76.10;;;;;;5060286;28;20463;-65
2023/03/27 09:14:35;;;;;;;1.00;0.73;;;20.60;76.00;;;;;;5059957;28;20202;-70
2023/03/27 09:17:09;;;;;;;1.58;1.00;;;20.60;75.90;;;;;;5068000;28;20658;-59
2023/03/27 09:19:44;;;;;;;1.15;0.82;;;20.60;75.90;;;;;;5064275;28;20265;-60
2023/03/27 09:22:15;;;;;;;1.80;0.93;;;20.60;75.90;;;;;;5068216;28;20300;-61
2023/03/27 09:24:45;;;;;;;1.35;0.80;;;20.60;75.90;;;;;;5061793;28;20650;-63
2023/03/27 09:27:17;;;;;;;1.10;0.70;;;20.70;76.10;;;;;;5066996;28;20257;-58
2023/03/27 09:29:44;;;;;;;1.83;0.90;;;20.70;76.20;;;;;;5061710;28;20226;-56
2023/03/27 09:32:14;;;;;;;1.45;0.82;;;20.70;76.20;;;;;;5068203;28;20191;-60
2023/03/27 09:34:41;;;;;;;1.85;1.05;;;20.70;76.20;;;;;;5070508;28;20274;-54
2023/03/27 09:37:12;;;;;;;1.48;0.93;;;20.80;76.40;;;;;;5061364;28;20202;-68
2023/03/27 09:39:43;;;;;;;1.38;0.82;;;20.80;76.50;;;;;;5069463;28;20272;-60
2023/03/27 09:42:18;;;;;;;2.65;0.88;;;20.80;76.50;;;;;;5065555;28;20618;-62
2023/03/27 09:44:49;;;;;;;2.40;0.97;;;20.80;76.60;;;;;;5063123;28;20202;-61
2023/03/27 09:47:21;;;;;;;1.37;1.00;;;20.80;76.60;;;;;;5069001;28;20461;-64
2023/03/27 09:49:51;;;;;;;0.90;0.70;;;20.80;76.70;;;;;;5070811;28;20911;-66
2023/03/27 09:52:35;;;;;;;1.90;0.93;;;20.80;76.70;;;;;;5076547;28;20521;-67
2023/03/27 09:55:01;;;;;;;1.60;0.90;;;20.80;76.70;;;;;;5068356;28;20530;-58
2023/03/27 09:57:33;;;;;;;2.05;0.88;;;20.80;76.80;;;;;;5059711;28;20447;-59
2023/03/27 10:00:08;;;;;;;1.98;1.05;;;20.90;77.00;;;;;;5074126;28;20249;-62
2023/03/27 10:02:36;;;;;;;1.70;0.90;;;20.90;77.00;;;;;;5062991;28;20195;-59
2023/03/27 10:05:10;;;;;;;5.15;0.95;;;20.90;77.00;;;;;;5071464;28;20461;-58
2023/03/27 10:07:38;;;;;;;1.77;0.97;;;20.90;77.10;;;;;;5070393;28;20199;-61
2023/03/27 10:10:10;;;;;;;1.47;0.83;;;20.90;77.10;;;;;;5064308;28;20476;-58
2023/03/27 10:12:40;;;;;;;1.20;0.70;;;20.90;77.10;;;;;;5064684;28;20472;-64
2023/03/27 10:15:27;;;;;;;1.20;0.80;;;20.90;77.20;;;;;;5063097;28;20460;-60
2023/03/27 10:17:54;;;;;;;1.43;0.90;;;20.90;77.10;;;;;;5064755;28;20790;-60
2023/03/27 10:20:22;;;;;;;2.03;1.13;;;20.90;77.20;;;;;;5063968;28;20483;-58
2023/03/27 10:22:52;;;;;;;2.27;1.10;;;20.90;77.20;;;;;;5068693;28;20477;-55
2023/03/27 10:25:25;;;;;;;1.00;0.70;;;20.90;77.20;;;;;;5065334;28;20526;-54
2023/03/27 10:27:54;;;;;;;1.60;0.77;;;20.90;77.30;;;;;;5060279;28;20453;-61
2023/03/27 10:30:26;;;;;;;1.20;0.80;;;20.90;77.20;;;;;;5067350;28;20986;-53
2023/03/27 10:32:52;;;;;;;1.90;0.83;;;20.90;77.20;;;;;;5062089;28;20199;-59
2023/03/27 10:35:25;;;;;;;1.40;0.87;;;21.00;77.20;;;;;;5071745;28;20517;-62
2023/03/27 10:37:53;;;;;;;1.10;0.80;;;20.90;77.00;;;;;;5062775;28;20883;-57
2023/03/27 10:40:21;;;;;;;1.90;0.90;;;21.00;77.10;;;;;;5058106;28;20489;-60
2023/03/27 10:42:48;;;;;;;1.87;0.90;;;20.90;76.80;;;;;;5063297;28;20465;-62
2023/03/27 10:45:20;;;;;;;1.20;0.80;;;20.90;76.70;;;;;;5065740;28;20468;-58
2023/03/27 10:47:50;;;;;;;1.10;0.80;;;21.00;76.70;;;;;;5059792;28;20517;-62
2023/03/27 10:50:21;;;;;;;4.22;0.80;;;21.00;76.50;;;;;;5073618;28;20711;-67
2023/03/27 10:53:00;;;;;;;2.43;0.90;;;21.00;76.50;;;;;;5062219;28;20616;-66
2023/03/27 10:55:40;;;;;;;1.37;0.70;;;21.00;76.20;;;;;;5065159;28;20464;-60
2023/03/27 10:58:25;;;;;;;6.57;0.93;;;21.00;76.10;;;;;;5058444;28;20461;-58
2023/03/27 11:00:58;;;;;;;2.80;1.37;;;21.00;76.00;;;;;;5068213;28;21234;-63
2023/03/27 11:03:31;;;;;;;1.60;0.80;;;21.00;75.80;;;;;;5058524;28;20457;-56
2023/03/27 11:06:01;;;;;;;1.53;1.00;;;21.00;75.70;;;;;;5055462;28;20464;-62
2023/03/27 11:08:33;;;;;;;1.77;0.80;;;21.00;75.50;;;;;;5061756;28;20850;-62
2023/03/27 11:11:08;;;;;;;1.67;0.80;;;21.00;75.30;;;;;;5069670;28;20460;-66
2023/03/27 11:13:40;;;;;;;2.40;1.07;;;21.00;75.70;;;;;;5060885;28;20461;-67
2023/03/27 11:16:16;;;;;;;1.63;0.70;;;21.00;75.10;;;;;;5065298;28;20511;-64
2023/03/27 11:18:48;;;;;;;3.25;1.15;;;21.00;74.90;;;;;;5057961;28;20471;-63
2023/03/27 11:21:20;;;;;;;1.05;0.80;;;21.00;74.70;;;;;;5068072;28;20237;-65
2023/03/27 11:23:50;;;;;;;1.47;0.80;;;21.00;74.60;;;;;;5067150;28;20203;-67
2023/03/27 11:26:21;;;;;;;1.10;0.77;;;21.00;74.40;;;;;;5060480;28;20939;-64
2023/03/27 11:28:55;;;;;;;1.10;0.70;;;21.00;74.30;;;;;;5058164;28;20666;-58
2023/03/27 11:31:34;;;;;;;2.50;1.03;;;21.00;74.30;;;;;;5075394;28;20947;-56
2023/03/27 11:34:05;;;;;;;1.50;1.10;;;21.00;74.30;;;;;;5079790;28;20967;-61
2023/03/27 11:36:41;;;;;;;2.17;0.90;;;21.00;74.30;;;;;;5069436;28;20552;-59
2023/03/27 11:39:17;;;;;;;1.63;0.83;;;21.00;74.20;;;;;;5072244;28;20459;-61
2023/03/27 11:41:50;;;;;;;1.50;0.90;;;21.00;74.10;;;;;;5065569;28;20505;-65
2023/03/27 11:44:16;;;;;;;1.37;0.80;;;21.00;74.10;;;;;;5069833;28;20460;-62
2023/03/27 11:47:14;;;;;;;2.03;0.80;;;21.00;74.10;;;;;;5073099;28;20444;-59
2023/03/27 11:49:52;;;;;;;1.60;0.90;;;21.00;73.80;;;;;;5064087;28;20871;-61
2023/03/27 11:52:30;;;;;;;1.77;0.80;;;21.00;73.80;;;;;;5064995;28;20203;-59
2023/03/27 11:55:09;;;;;;;1.90;0.90;;;21.00;73.80;;;;;;5076307;28;20202;-59
2023/03/27 11:57:50;;;;;;;1.58;0.85;;;21.00;73.70;;;;;;5071675;28;20457;-55
2023/03/27 12:00:24;;;;;;;1.60;0.90;;;21.00;73.70;;;;;;5072304;28;20731;-63
2023/03/27 12:03:35;;;;;;;1.60;0.70;;;21.00;73.60;;;;;;5069126;28;20294;-57
2023/03/27 12:06:14;;;;;;;1.70;0.80;;;20.90;73.50;;;;;;5060611;28;20529;-57
2023/03/27 12:09:00;;;;;;;1.35;0.70;;;20.90;73.40;;;;;;5066269;28;20456;-59
2023/03/27 12:11:29;;;;;;;0.90;0.70;;;20.90;73.30;;;;;;5066855;28;20199;-62
2023/03/27 12:14:27;;;;;;;1.40;0.77;;;20.90;73.20;;;;;;5070459;28;20468;-54
2023/03/27 12:17:07;;;;;;;1.10;0.67;;;20.90;73.10;;;;;;5062232;28;20521;-63
2023/03/27 12:19:54;;;;;;;1.57;0.80;;;20.90;72.90;;;;;;5067677;28;20528;-56
2023/03/27 12:22:33;;;;;;;1.00;0.80;;;20.90;72.90;;;;;;5063040;28;20479;-56
2023/03/27 12:25:23;;;;;;;1.85;0.80;;;20.90;72.70;;;;;;5075806;28;20469;-61
2023/03/27 12:28:00;;;;;;;1.47;0.93;;;20.90;72.70;;;;;;5053473;28;20642;-57
2023/03/27 12:30:37;;;;;;;1.17;0.93;;;20.90;72.70;;;;;;5067568;28;20456;-58
2023/03/27 12:33:26;;;;;;;2.03;0.80;;;20.90;72.80;;;;;;5068017;28;20465;-56
2023/03/27 12:35:56;;;;;;;1.10;0.73;;;21.00;72.90;;;;;;5050739;28;20491;-56
2023/03/27 12:38:29;;;;;;;1.10;0.77;;;21.00;72.90;;;;;;5062164;28;20545;-58
2023/03/27 12:41:07;;;;;;;1.07;0.80;;;21.00;72.80;;;;;;5067423;28;20488;-59
2023/03/27 12:43:38;;;;;;;1.63;0.70;;;21.00;72.90;;;;;;5073138;28;20537;-58
2023/03/27 12:46:15;;;;;;;0.83;0.60;;;21.00;72.90;;;;;;5068159;28;20875;-58
2023/03/27 12:48:51;;;;;;;3.57;0.90;;;21.00;72.90;;;;;;5066234;28;20979;-55
2023/03/27 12:51:19;;;;;;;1.20;0.70;;;21.00;72.90;;;;;;5066265;28;20457;-58
2023/03/27 12:53:49;;;;;;;1.10;0.80;;;21.00;73.00;;;;;;5066156;28;20497;-67
2023/03/27 12:56:31;;;;;;;1.30;0.80;;;21.00;73.10;;;;;;5065996;28;20492;-62
2023/03/27 12:58:58;;;;;;;1.70;0.70;;;21.00;73.10;;;;;;5055755;28;20538;-68
2023/03/27 13:01:45;;;;;;;0.90;0.70;;;21.00;73.80;;;;;;5065054;28;20477;-65
2023/03/27 13:04:34;;;;;;;1.00;0.83;;;21.00;73.10;;;;;;5068666;28;20457;-64
2023/03/27 13:07:09;;;;;;;2.27;0.80;;;21.00;73.20;;;;;;5054822;28;20453;-61